createdAt,value
2019-03-21T00:00:32.381Z,97154.91
2019-03-21T00:03:21.035Z,97160.05
2019-03-21T00:06:10.950Z,97150.18
2019-03-21T00:08:59.230Z,97149.33
2019-03-21T00:12:10.105Z,97149.00
2019-03-21T00:15:19.172Z,97155.92
2019-03-21T00:18:10.158Z,97153.45
2019-03-21T00:20:58.080Z,97151.54
2019-03-21T00:23:45.948Z,97155.73
2019-03-21T00:26:34.546Z,97145.34
2019-03-21T00:29:22.566Z,97150.89
2019-03-21T00:32:11.221Z,97147.05
2019-03-21T00:34:59.170Z,97147.78
2019-03-21T00:37:47.740Z,97140.47
2019-03-21T00:40:38.115Z,97141.51
2019-03-21T00:43:26.735Z,97144.86
2019-03-21T00:46:15.220Z,97135.97
2019-03-21T00:49:03.292Z,97127.20
2019-03-21T00:51:51.977Z,97128.64
2019-03-21T00:54:39.859Z,97127.51
2019-03-21T00:57:28.388Z,97126.15
2019-03-21T01:00:22.734Z,97120.66
2019-03-21T01:03:12.236Z,97123.54
2019-03-21T01:06:00.020Z,97125.53
2019-03-21T01:08:47.898Z,97122.33
2019-03-21T01:11:36.257Z,97123.35
2019-03-21T01:14:29.721Z,97117.36
2019-03-21T01:17:14.752Z,97123.92
2019-03-21T01:20:02.580Z,97121.41
2019-03-21T01:22:50.845Z,97116.99
2019-03-21T01:25:45.630Z,97111.47
2019-03-21T01:28:34.113Z,97114.20
2019-03-21T01:31:22.726Z,97100.55
2019-03-21T01:34:11.126Z,97100.02
2019-03-21T01:36:59.315Z,97101.20
2019-03-21T01:39:47.151Z,97099.87
2019-03-21T01:42:35.396Z,97096.63
2019-03-21T01:45:24.418Z,97092.58
2019-03-21T01:48:12.708Z,97092.83
2019-03-21T01:51:01.230Z,97090.89
2019-03-21T01:53:49.652Z,97083.57
2019-03-21T01:56:38.351Z,97084.48
2019-03-21T01:59:26.762Z,97083.03
2019-03-21T02:02:15.310Z,97079.98
2019-03-21T02:05:03.474Z,97076.28
2019-03-21T02:07:51.728Z,97068.92
2019-03-21T02:10:40.290Z,97067.88
2019-03-21T02:13:28.978Z,97066.48
2019-03-21T02:16:16.774Z,97066.79
2019-03-21T02:19:05.037Z,97067.02
2019-03-21T02:21:53.525Z,97054.82
2019-03-21T02:24:41.822Z,97059.75
2019-03-21T02:27:30.290Z,97057.19
2019-03-21T02:30:21.021Z,97057.25
2019-03-21T02:33:22.135Z,97053.68
2019-03-21T02:36:10.345Z,97057.67
2019-03-21T02:39:00.667Z,97059.42
2019-03-21T02:41:49.140Z,97049.64
2019-03-21T02:44:37.854Z,97052.89
2019-03-21T02:47:25.918Z,97049.77
2019-03-21T02:50:17.825Z,97045.34
2019-03-21T02:53:06.003Z,97042.22
2019-03-21T02:55:54.208Z,97047.44
2019-03-21T02:58:42.474Z,97045.81
2019-03-21T03:01:31.204Z,97043.55
2019-03-21T03:04:19.767Z,97047.61
2019-03-21T03:07:08.453Z,97039.58
2019-03-21T03:09:56.712Z,97043.81
2019-03-21T03:12:45.388Z,97049.19
2019-03-21T03:15:33.672Z,97047.86
2019-03-21T03:18:22.562Z,97042.50
2019-03-21T03:21:11.111Z,97048.88
2019-03-21T03:23:59.485Z,97049.35
2019-03-21T03:26:48.270Z,97051.11
2019-03-21T03:29:37.381Z,97051.45
2019-03-21T03:32:25.763Z,97053.63
2019-03-21T03:35:14.153Z,97058.39
2019-03-21T03:38:02.723Z,97056.00
2019-03-21T03:40:56.257Z,97058.30
2019-03-21T03:43:44.514Z,97051.23
2019-03-21T03:46:32.705Z,97056.80
2019-03-21T03:49:21.389Z,97055.53
2019-03-21T03:52:09.895Z,97058.00
2019-03-21T03:54:58.934Z,97056.95
2019-03-21T03:57:47.696Z,97064.05
2019-03-21T04:00:36.208Z,97066.53
2019-03-21T04:03:24.424Z,97070.55
2019-03-21T04:06:12.698Z,97071.59
2019-03-21T04:09:01.089Z,97079.84
2019-03-21T04:11:49.651Z,97080.67
2019-03-21T04:14:38.143Z,97077.96
2019-03-21T04:17:26.365Z,97082.73
2019-03-21T04:20:16.138Z,97081.54
2019-03-21T04:23:04.423Z,97079.59
2019-03-21T04:26:05.449Z,97086.98
2019-03-21T04:28:54.281Z,97079.78
2019-03-21T04:31:42.829Z,97083.84
2019-03-21T04:34:31.379Z,97090.66
2019-03-21T04:37:19.586Z,97086.23
2019-03-21T04:40:08.972Z,97091.20
2019-03-21T04:42:57.288Z,97091.42
2019-03-21T04:45:45.846Z,97097.39
2019-03-21T04:48:33.738Z,97099.70
2019-03-21T04:51:22.596Z,97100.91
2019-03-21T04:54:11.360Z,97096.70
2019-03-21T04:56:59.715Z,97092.05
2019-03-21T04:59:47.944Z,97087.25
2019-03-21T05:02:36.186Z,97080.20
2019-03-21T05:05:24.267Z,97083.52
2019-03-21T05:08:12.562Z,97086.56
2019-03-21T05:11:01.089Z,97082.67
2019-03-21T05:13:49.940Z,97076.20
2019-03-21T05:16:37.810Z,97085.08
2019-03-21T05:19:26.234Z,97082.59
2019-03-21T05:22:14.130Z,97084.60
2019-03-21T05:25:02.888Z,97091.36
2019-03-21T05:27:51.330Z,97091.99
2019-03-21T05:30:49.302Z,97082.22
2019-03-21T05:33:37.924Z,97090.02
2019-03-21T05:36:26.509Z,97097.75
2019-03-21T05:39:15.210Z,97096.28
2019-03-21T05:42:06.047Z,97101.75
2019-03-21T05:44:54.826Z,97105.77
2019-03-21T05:47:43.132Z,97109.97
2019-03-21T05:50:31.075Z,97113.52
2019-03-21T05:53:19.322Z,97102.20
2019-03-21T05:56:07.343Z,97093.14
2019-03-21T05:58:55.424Z,97100.16
2019-03-21T06:01:43.583Z,97092.42
2019-03-21T06:04:31.903Z,97100.13
2019-03-21T06:07:27.905Z,97104.83
2019-03-21T06:10:17.331Z,97101.59
2019-03-21T06:13:06.075Z,97097.95
2019-03-21T06:15:54.789Z,97103.28
2019-03-21T06:19:35.897Z,97106.56
2019-03-21T06:22:54.638Z,97101.06
2019-03-21T06:26:02.118Z,97107.19
2019-03-21T06:28:50.293Z,97099.55
2019-03-21T06:31:38.317Z,97096.73
2019-03-21T06:34:26.962Z,97094.05
2019-03-21T06:37:15.557Z,97095.61
2019-03-21T06:40:04.146Z,97084.42
2019-03-21T06:42:52.393Z,97084.43
2019-03-21T06:45:47.815Z,97087.34
2019-03-21T06:48:31.046Z,97102.26
2019-03-21T06:51:19.172Z,97089.70
2019-03-21T06:54:07.754Z,97087.34
2019-03-21T06:56:56.539Z,97089.42
2019-03-21T06:59:45.083Z,97089.88
2019-03-21T07:02:33.724Z,97084.40
2019-03-21T07:05:22.052Z,97085.39
2019-03-21T07:08:10.468Z,97098.91
2019-03-21T07:10:58.887Z,97094.88
2019-03-21T07:13:47.196Z,97097.57
2019-03-21T07:16:35.493Z,97092.11
2019-03-21T07:19:23.921Z,97099.88
2019-03-21T07:22:12.636Z,97102.62
2019-03-21T07:25:00.754Z,97106.95
2019-03-21T07:27:49.388Z,97096.33
2019-03-21T07:30:37.423Z,97095.25
2019-03-21T07:33:25.905Z,97101.88
2019-03-21T07:36:14.121Z,97102.96
2019-03-21T07:39:04.007Z,97103.80
2019-03-21T07:41:52.966Z,97103.05
2019-03-21T07:44:41.491Z,97105.75
2019-03-21T07:47:29.904Z,97106.88
2019-03-21T07:50:18.210Z,97103.76
2019-03-21T07:53:06.800Z,97112.52
2019-03-21T07:55:55.429Z,97116.00
2019-03-21T07:58:43.642Z,97115.04
2019-03-21T08:01:31.478Z,97110.20
2019-03-21T08:04:20.087Z,97109.89
2019-03-21T08:07:08.686Z,97109.70
2019-03-21T08:09:56.667Z,97105.20
2019-03-21T08:12:45.382Z,97106.77
2019-03-21T08:15:33.647Z,97120.45
2019-03-21T08:18:21.858Z,97112.25
2019-03-21T08:21:10.471Z,97108.45
2019-03-21T08:23:58.241Z,97121.42
2019-03-21T08:26:46.455Z,97122.19
2019-03-21T08:29:34.792Z,97124.08
2019-03-21T08:32:23.259Z,97129.81
2019-03-21T08:35:11.241Z,97131.89
2019-03-21T08:37:59.646Z,97128.45
2019-03-21T08:40:48.091Z,97124.27
2019-03-21T08:43:36.592Z,97122.19
2019-03-21T08:46:25.093Z,97130.12
2019-03-21T08:49:13.251Z,97131.53
2019-03-21T08:52:01.874Z,97131.08
2019-03-21T08:54:50.458Z,97137.33
2019-03-21T08:57:38.813Z,97143.10
2019-03-21T09:00:34.172Z,97135.52
2019-03-21T09:03:16.839Z,97139.28
2019-03-21T09:06:05.438Z,97137.23
2019-03-21T09:08:53.989Z,97131.40
2019-03-21T09:11:42.271Z,97132.47
2019-03-21T09:14:30.477Z,97134.02
2019-03-21T09:17:19.328Z,97130.91
2019-03-21T09:20:07.830Z,97132.23
2019-03-21T09:22:56.134Z,97136.30
2019-03-21T09:25:44.623Z,97138.99
2019-03-21T09:28:33.257Z,97127.89
2019-03-21T09:31:22.087Z,97138.34
2019-03-21T09:34:10.259Z,97134.33
2019-03-21T09:36:58.727Z,97130.52
2019-03-21T09:39:47.090Z,97134.08
2019-03-21T09:42:35.015Z,97133.81
2019-03-21T09:45:22.994Z,97127.11
2019-03-21T09:48:11.337Z,97126.26
2019-03-21T09:50:59.861Z,97132.18
2019-03-21T09:53:48.118Z,97136.80
2019-03-21T09:56:36.532Z,97141.39
2019-03-21T09:59:24.845Z,97133.59
2019-03-21T10:02:12.881Z,97141.13
2019-03-21T10:05:01.285Z,97134.83
2019-03-21T10:07:49.884Z,97134.39
2019-03-21T10:10:37.844Z,97128.05
2019-03-21T10:13:25.905Z,97138.55
2019-03-21T10:16:14.502Z,97136.28
2019-03-21T10:19:03.353Z,97143.44
2019-03-21T10:21:51.392Z,97142.96
2019-03-21T10:24:39.202Z,97140.22
2019-03-21T10:27:27.367Z,97135.33
2019-03-21T10:30:26.582Z,97135.23
2019-03-21T10:33:15.261Z,97138.22
2019-03-21T10:36:03.850Z,97133.16
2019-03-21T10:38:52.281Z,97137.70
2019-03-21T10:41:40.440Z,97134.94
2019-03-21T10:44:29.165Z,97135.16
2019-03-21T10:47:17.708Z,97131.23
2019-03-21T10:50:06.763Z,97126.97
2019-03-21T10:52:55.233Z,97125.69
2019-03-21T10:55:43.313Z,97118.13
2019-03-21T10:58:31.602Z,97111.67
2019-03-21T11:01:19.965Z,97110.75
2019-03-21T11:04:07.982Z,97120.72
2019-03-21T11:07:00.401Z,97109.23
2019-03-21T11:09:48.709Z,97114.48
2019-03-21T11:12:36.583Z,97122.09
2019-03-21T11:15:24.977Z,97119.22
2019-03-21T11:18:13.395Z,97126.81
2019-03-21T11:21:01.619Z,97110.81
2019-03-21T11:23:49.590Z,97115.66
2019-03-21T11:26:37.990Z,97107.47
2019-03-21T11:29:26.342Z,97107.54
2019-03-21T11:32:14.759Z,97101.30
2019-03-21T11:35:03.303Z,97101.02
2019-03-21T11:37:51.767Z,97100.75
2019-03-21T11:40:39.769Z,97098.66
2019-03-21T11:43:28.280Z,97099.14
2019-03-21T11:46:16.458Z,97111.80
2019-03-21T11:49:04.930Z,97103.03
2019-03-21T11:51:53.228Z,97086.37
2019-03-21T11:54:42.593Z,97092.43
2019-03-21T11:57:30.927Z,97099.00
2019-03-21T12:00:19.612Z,97084.88
2019-03-21T12:03:07.819Z,97091.13
2019-03-21T12:05:55.916Z,97088.89
2019-03-21T12:08:44.021Z,97080.35
2019-03-21T12:11:32.577Z,97072.07
2019-03-21T12:14:21.433Z,97079.56
2019-03-21T12:17:09.779Z,97071.94
2019-03-21T12:19:57.889Z,97072.89
2019-03-21T12:22:47.333Z,97066.34
2019-03-21T12:25:36.087Z,97061.53
2019-03-21T12:28:24.148Z,97060.73
2019-03-21T12:31:12.480Z,97048.98
2019-03-21T12:34:00.427Z,97050.91
2019-03-21T12:36:48.937Z,97051.87
2019-03-21T12:39:37.098Z,97049.30
2019-03-21T12:42:25.580Z,97046.02
2019-03-21T12:45:13.567Z,97045.09
2019-03-21T12:48:01.660Z,97028.43
2019-03-21T12:50:49.841Z,97036.31
2019-03-21T12:53:37.931Z,97036.63
2019-03-21T12:56:26.409Z,97027.77
2019-03-21T12:59:14.652Z,97028.92
2019-03-21T13:02:02.497Z,97021.67
2019-03-21T13:04:51.118Z,97025.34
2019-03-21T13:07:39.422Z,97018.64
2019-03-21T13:10:27.969Z,97019.66
2019-03-21T13:13:16.047Z,97020.19
2019-03-21T13:16:04.496Z,97014.24
2019-03-21T13:18:52.848Z,97015.77
2019-03-21T13:21:41.076Z,97014.27
2019-03-21T13:24:28.937Z,97015.00
2019-03-21T13:27:18.056Z,97019.19
2019-03-21T13:30:06.577Z,97015.75
2019-03-21T13:32:54.935Z,97008.07
2019-03-21T13:35:43.105Z,97006.72
2019-03-21T13:38:31.602Z,97005.16
2019-03-21T13:41:20.079Z,97007.84
2019-03-21T13:44:08.541Z,96999.92
2019-03-21T13:46:56.848Z,96988.09
2019-03-21T13:49:45.080Z,96995.42
2019-03-21T13:52:33.367Z,96987.09
2019-03-21T13:55:21.585Z,96984.41
2019-03-21T13:58:10.340Z,96980.57
2019-03-21T14:00:58.803Z,96979.55
2019-03-21T14:03:46.953Z,96980.80
2019-03-21T14:06:35.135Z,96982.00
2019-03-21T14:09:22.979Z,96975.06
2019-03-21T14:12:11.583Z,96973.50
2019-03-21T14:14:59.795Z,96970.66
2019-03-21T14:17:48.041Z,96973.94
2019-03-21T14:20:36.601Z,96978.34
2019-03-21T14:23:24.846Z,96968.66
2019-03-21T14:26:12.981Z,96970.28
2019-03-21T14:29:12.218Z,96965.85
2019-03-21T14:31:50.760Z,96963.88
2019-03-21T14:34:39.127Z,96951.64
2019-03-21T14:37:27.632Z,96952.63
2019-03-21T14:40:16.235Z,96948.79
2019-03-21T14:43:04.497Z,96947.39
2019-03-21T14:45:52.926Z,96949.36
2019-03-21T14:48:41.431Z,96950.45
2019-03-21T14:51:30.002Z,96956.46
2019-03-21T14:54:18.363Z,96954.53
2019-03-21T14:57:06.847Z,96949.86
2019-03-21T14:59:54.717Z,96946.57
2019-03-21T15:02:42.633Z,96947.56
2019-03-21T15:05:30.437Z,96958.46
2019-03-21T15:08:18.749Z,96951.47
2019-03-21T15:11:16.530Z,96952.08
2019-03-21T15:13:57.356Z,96952.58
2019-03-21T15:16:45.621Z,96953.52
2019-03-21T15:19:33.999Z,96951.39
2019-03-21T15:22:21.972Z,96947.63
2019-03-21T15:25:10.615Z,96962.53
2019-03-21T15:27:59.300Z,96950.23
2019-03-21T15:30:47.423Z,96940.12
2019-03-21T15:33:35.282Z,96945.20
2019-03-21T15:36:23.745Z,96945.95
2019-03-21T15:39:12.171Z,96951.62
2019-03-21T15:42:00.256Z,96955.38
2019-03-21T15:44:48.599Z,96962.34
2019-03-21T15:47:36.671Z,96952.41
2019-03-21T15:50:29.724Z,96947.91
2019-03-21T15:53:17.687Z,96944.08
2019-03-21T15:56:05.998Z,96956.39
2019-03-21T15:58:54.358Z,96952.91
2019-03-21T16:01:42.516Z,96945.86
2019-03-21T16:04:31.082Z,96957.84
2019-03-21T16:07:19.860Z,96956.93
2019-03-21T16:10:08.322Z,96954.72
2019-03-21T16:12:56.506Z,96954.72
2019-03-21T16:15:44.435Z,96961.29
2019-03-21T16:18:32.672Z,96964.36
2019-03-21T16:21:21.221Z,96965.62
2019-03-21T16:24:09.380Z,96961.05
2019-03-21T16:26:57.353Z,96960.50
2019-03-21T16:29:45.483Z,96966.23
2019-03-21T16:32:33.700Z,96960.52
2019-03-21T16:35:22.191Z,96961.63
2019-03-21T16:38:10.735Z,96961.27
2019-03-21T16:40:58.845Z,96962.27
2019-03-21T16:43:47.155Z,96966.34
2019-03-21T16:46:35.516Z,96968.31
2019-03-21T16:49:23.851Z,96962.63
2019-03-21T16:52:12.260Z,96966.95
2019-03-21T16:55:00.435Z,96976.61
2019-03-21T16:57:48.582Z,96970.11
2019-03-21T17:00:36.903Z,96975.97
2019-03-21T17:03:25.653Z,96975.67
2019-03-21T17:06:13.715Z,96978.31
2019-03-21T17:09:02.158Z,96982.45
2019-03-21T17:11:50.665Z,96982.81
2019-03-21T17:14:39.039Z,96994.95
2019-03-21T17:17:27.928Z,96984.51
2019-03-21T17:20:17.160Z,96992.55
2019-03-21T17:23:05.179Z,96996.77
2019-03-21T17:25:53.388Z,96993.16
2019-03-21T17:28:41.610Z,96996.03
2019-03-21T17:31:30.149Z,97001.43
2019-03-21T17:34:18.777Z,97003.27
2019-03-21T17:37:07.000Z,97007.71
2019-03-21T17:39:55.170Z,97005.89
2019-03-21T17:42:43.628Z,97001.75
2019-03-21T17:45:32.040Z,97002.84
2019-03-21T17:48:19.871Z,97007.40
2019-03-21T17:51:08.340Z,97011.66
2019-03-21T17:53:57.137Z,97010.34
2019-03-21T17:56:45.351Z,97006.52
2019-03-21T17:59:33.924Z,97015.02
2019-03-21T18:02:22.171Z,97006.73
2019-03-21T18:05:10.249Z,97010.30
2019-03-21T18:07:58.927Z,97020.41
2019-03-21T18:10:47.155Z,97014.84
2019-03-21T18:13:35.523Z,97012.21
2019-03-21T18:16:26.294Z,97016.84
2019-03-21T18:19:14.562Z,97020.53
2019-03-21T18:22:03.126Z,97025.58
2019-03-21T18:24:54.104Z,97027.61
2019-03-21T18:27:41.075Z,97022.36
2019-03-21T18:30:29.739Z,97026.47
2019-03-21T18:33:19.413Z,97036.94
2019-03-21T18:36:07.526Z,97034.41
2019-03-21T18:38:59.395Z,97036.04
2019-03-21T18:41:45.992Z,97031.72
2019-03-21T18:44:34.322Z,97033.08
2019-03-21T18:47:22.486Z,97036.17
2019-03-21T18:50:11.240Z,97034.30
2019-03-21T18:52:59.767Z,97030.72
2019-03-21T18:55:48.157Z,97030.96
2019-03-21T18:58:36.308Z,97041.83
2019-03-21T19:01:24.275Z,97035.67
2019-03-21T19:04:12.142Z,97038.03
2019-03-21T19:07:01.124Z,97042.91
2019-03-21T19:09:49.485Z,97040.03
2019-03-21T19:12:37.745Z,97034.16
2019-03-21T19:15:25.829Z,97041.10
2019-03-21T19:18:14.269Z,97038.62
2019-03-21T19:21:02.764Z,97037.91
2019-03-21T19:23:51.112Z,97032.36
2019-03-21T19:26:38.942Z,97038.13
2019-03-21T19:29:27.081Z,97038.70
2019-03-21T19:32:15.353Z,97034.91
2019-03-21T19:35:03.232Z,97037.86
2019-03-21T19:37:51.794Z,97039.09
2019-03-21T19:40:39.568Z,97040.45
2019-03-21T19:43:28.005Z,97043.20
2019-03-21T19:46:16.395Z,97040.09
2019-03-21T19:49:05.004Z,97038.97
2019-03-21T19:51:52.900Z,97037.34
2019-03-21T19:54:41.079Z,97042.11
2019-03-21T19:57:29.661Z,97038.59
2019-03-21T20:00:19.281Z,97037.61
2019-03-21T20:03:07.999Z,97036.72
2019-03-21T20:06:00.375Z,97041.68
2019-03-21T20:08:46.238Z,97043.86
2019-03-21T20:11:34.946Z,97042.05
2019-03-21T20:14:22.807Z,97047.83
2019-03-21T20:17:11.529Z,97042.30
2019-03-21T20:20:00.047Z,97039.89
2019-03-21T20:22:48.588Z,97047.50
2019-03-21T20:25:42.922Z,97053.20
2019-03-21T20:28:27.001Z,97053.91
2019-03-21T20:31:15.513Z,97048.58
2019-03-21T20:34:04.095Z,97049.93
2019-03-21T20:36:52.559Z,97048.17
2019-03-21T20:39:41.189Z,97058.49
2019-03-21T20:42:29.776Z,97053.45
2019-03-21T20:45:18.983Z,97048.88
2019-03-21T20:48:07.224Z,97052.16
2019-03-21T20:50:55.575Z,97048.12
2019-03-21T20:53:44.008Z,97049.73
2019-03-21T20:56:32.495Z,97046.30
2019-03-21T20:59:20.956Z,97047.13
2019-03-21T21:02:09.110Z,97048.27
2019-03-21T21:04:57.972Z,97047.73
2019-03-21T21:07:46.431Z,97045.56
2019-03-21T21:10:34.735Z,97045.05
2019-03-21T21:13:22.569Z,97041.56
2019-03-21T21:16:10.816Z,97049.08
2019-03-21T21:18:58.916Z,97046.44
2019-03-21T21:21:46.875Z,97040.22
2019-03-21T21:24:35.465Z,97036.37
2019-03-21T21:27:23.835Z,97035.04
2019-03-21T21:30:13.015Z,97032.16
2019-03-21T21:33:01.461Z,97038.13
2019-03-21T21:35:50.058Z,97038.13
2019-03-21T21:38:38.003Z,97032.77
2019-03-21T21:41:25.915Z,97034.06
2019-03-21T21:44:14.105Z,97035.67
2019-03-21T21:47:02.240Z,97030.55
2019-03-21T21:49:50.378Z,97030.33
2019-03-21T21:52:42.175Z,97024.69
2019-03-21T21:55:29.382Z,97028.43
2019-03-21T21:58:17.486Z,97027.68
2019-03-21T22:01:05.821Z,97027.13
2019-03-21T22:04:04.192Z,97031.19
2019-03-21T22:06:43.731Z,97029.51
2019-03-21T22:09:32.598Z,97029.81
2019-03-21T22:12:20.881Z,97027.97
2019-03-21T22:15:10.092Z,97032.03
2019-03-21T22:17:58.367Z,97027.20
2019-03-21T22:20:46.586Z,97029.59
2019-03-21T22:23:34.895Z,97028.78
2019-03-21T22:26:29.487Z,97018.02
2019-03-21T22:29:13.053Z,97026.09
2019-03-21T22:32:01.465Z,97022.61
2019-03-21T22:34:49.648Z,97028.81
2019-03-21T22:37:37.583Z,97015.32
2019-03-21T22:40:25.891Z,97013.98
2019-03-21T22:43:13.664Z,97021.52
2019-03-21T22:46:02.115Z,97020.73
2019-03-21T22:48:50.254Z,97018.87
2019-03-21T22:51:38.510Z,97015.07
2019-03-21T22:54:26.380Z,97012.92
2019-03-21T22:57:14.678Z,97012.92
2019-03-21T23:00:03.671Z,97011.02
2019-03-21T23:02:51.945Z,97016.15
2019-03-21T23:05:40.711Z,97014.00
2019-03-21T23:08:28.987Z,97015.06
2019-03-21T23:11:16.962Z,97016.39
2019-03-21T23:14:05.266Z,97013.45
2019-03-21T23:16:53.501Z,97009.69
2019-03-21T23:19:41.795Z,97011.29
2019-03-21T23:22:30.513Z,97006.98
2019-03-21T23:25:18.870Z,97007.25
2019-03-21T23:28:07.689Z,97011.02
2019-03-21T23:30:56.114Z,97003.21
2019-03-21T23:33:44.645Z,97012.09
2019-03-21T23:36:33.175Z,97008.07
2019-03-21T23:39:21.840Z,97005.35
2019-03-21T23:42:09.674Z,97007.22
2019-03-21T23:44:58.296Z,96999.96
2019-03-21T23:47:46.977Z,96998.07
2019-03-21T23:50:35.429Z,96995.38
2019-03-21T23:53:23.971Z,96998.34
2019-03-21T23:56:11.934Z,96996.46
2019-03-21T23:59:00.164Z,96995.65
